Time;durP1;ratioP1;P1;durP2;ratioP2;P2;SDS_P1;SDS_P2;PMS_P1;PMS_P2;Temp;Humidity;BMP_temperature;BMP_pressure;BME280_temperature;BME280_humidity;BME280_pressure;Samples;Min_cycle;Max_cycle;Signal;HPM_P1;HPM_P2
2020/12/01 00:01:19;;;;;;;16.13;11.20;;;6.10;98.60;;;;;;5098080;28;20553;-85
2020/12/01 00:03:45;;;;;;;16.60;12.20;;;6.20;98.30;;;;;;5097559;28;20459;-84
2020/12/01 00:06:11;;;;;;;14.33;10.97;;;6.10;98.30;;;;;;5098107;28;20468;-84
2020/12/01 00:08:39;;;;;;;15.60;10.20;;;6.20;98.20;;;;;;5098514;28;20784;-84
2020/12/01 00:11:06;;;;;;;16.50;11.47;;;6.20;98.40;;;;;;5097764;28;20447;-84
2020/12/01 00:13:32;;;;;;;14.93;11.13;;;6.20;98.40;;;;;;5097156;28;20463;-85
2020/12/01 00:15:58;;;;;;;15.90;12.07;;;6.20;98.40;;;;;;5098527;28;20442;-82
2020/12/01 00:18:25;;;;;;;14.57;10.17;;;6.20;98.40;;;;;;5098583;28;20470;-83
2020/12/01 00:20:51;;;;;;;15.40;11.37;;;6.20;98.40;;;;;;5098427;28;20812;-82
2020/12/01 00:23:17;;;;;;;16.83;11.30;;;6.30;98.40;;;;;;5099318;28;20471;-83
2020/12/01 00:25:46;;;;;;;15.17;10.50;;;6.30;98.40;;;;;;5098302;28;20486;-83
2020/12/01 00:28:13;;;;;;;12.50;9.90;;;6.30;98.20;;;;;;5098704;28;20507;-84
2020/12/01 00:30:42;;;;;;;13.00;10.40;;;6.40;98.10;;;;;;5097141;28;20455;-84
2020/12/01 00:33:09;;;;;;;14.60;10.27;;;6.40;98.10;;;;;;5097722;28;20468;-84
2020/12/01 00:35:35;;;;;;;15.10;10.27;;;6.50;98.20;;;;;;5096942;28;20942;-84
2020/12/01 00:38:01;;;;;;;11.53;9.50;;;6.50;98.30;;;;;;5098010;28;20439;-84
2020/12/01 00:40:27;;;;;;;14.13;10.57;;;6.50;98.10;;;;;;5098030;28;20444;-83
2020/12/01 00:42:54;;;;;;;15.10;9.50;;;6.50;98.20;;;;;;5097720;28;20472;-82
2020/12/01 00:45:20;;;;;;;12.67;9.83;;;6.50;98.00;;;;;;5099672;28;20483;-82
2020/12/01 00:47:46;;;;;;;13.87;9.97;;;6.50;98.00;;;;;;5102598;28;20447;-81
2020/12/01 00:50:21;;;;;;;12.73;10.27;;;6.50;98.00;;;;;;5101087;28;20986;-81
2020/12/01 00:52:47;;;;;;;17.43;11.43;;;6.50;98.10;;;;;;5100686;28;20474;-81
2020/12/01 00:55:13;;;;;;;15.33;10.87;;;6.50;98.00;;;;;;5104153;28;20416;-80
2020/12/01 00:57:39;;;;;;;15.70;11.10;;;6.50;98.00;;;;;;5103777;28;20447;-81
2020/12/01 01:00:09;;;;;;;13.73;10.57;;;6.50;98.10;;;;;;5103458;28;20440;-82
2020/12/01 01:02:36;;;;;;;16.23;11.77;;;6.60;98.00;;;;;;5103463;28;20463;-83
2020/12/01 01:05:02;;;;;;;17.70;12.20;;;6.50;97.80;;;;;;5103577;28;20829;-82
2020/12/01 01:07:28;;;;;;;16.33;11.30;;;6.50;97.80;;;;;;5102184;28;20447;-81
2020/12/01 01:09:54;;;;;;;14.67;12.20;;;6.50;97.90;;;;;;5101525;28;20537;-81
2020/12/01 01:12:20;;;;;;;15.80;10.97;;;6.60;98.00;;;;;;5101032;28;20424;-81
2020/12/01 01:14:46;;;;;;;16.63;12.30;;;6.60;97.90;;;;;;5100636;28;20443;-80
2020/12/01 01:17:13;;;;;;;17.83;11.87;;;6.60;98.00;;;;;;5101257;28;20435;-81
2020/12/01 01:19:40;;;;;;;19.10;13.63;;;6.60;98.00;;;;;;5119332;28;20439;-81
2020/12/01 01:22:06;;;;;;;18.10;13.40;;;6.60;98.10;;;;;;5108294;28;20451;-81
2020/12/01 01:24:32;;;;;;;20.80;14.30;;;6.60;98.10;;;;;;5106011;28;20486;-81
2020/12/01 01:26:58;;;;;;;21.93;14.10;;;6.60;98.10;;;;;;5105775;28;20892;-81
2020/12/01 01:29:24;;;;;;;18.30;13.30;;;6.60;98.20;;;;;;5104371;28;20451;-81
2020/12/01 01:31:53;;;;;;;20.20;14.23;;;6.60;98.10;;;;;;5105028;28;20466;-81
2020/12/01 01:34:20;;;;;;;16.43;13.30;;;6.70;98.20;;;;;;5109062;28;20973;-81
2020/12/01 01:36:46;;;;;;;20.30;14.67;;;6.70;98.10;;;;;;5104287;28;20522;-80
2020/12/01 01:39:13;;;;;;;20.00;14.87;;;6.70;98.10;;;;;;5103688;28;20446;-80
2020/12/01 01:41:39;;;;;;;21.97;13.93;;;6.70;98.10;;;;;;5104002;28;20828;-81
2020/12/01 01:44:20;;;;;;;19.40;14.10;;;6.70;98.00;;;;;;5103454;28;20505;-79
2020/12/01 01:46:48;;;;;;;20.23;14.23;;;6.70;98.10;;;;;;5103031;28;20475;-82
2020/12/01 01:49:18;;;;;;;19.37;14.90;;;6.70;98.00;;;;;;5102931;28;20461;-80
2020/12/01 01:51:51;;;;;;;19.63;14.37;;;6.70;98.10;;;;;;5102460;28;20451;-82
2020/12/01 01:54:19;;;;;;;20.80;14.00;;;6.70;98.10;;;;;;5102515;28;20973;-81
2020/12/01 01:56:48;;;;;;;23.60;14.97;;;6.70;98.20;;;;;;5105128;28;20452;-84
2020/12/01 01:59:15;;;;;;;17.20;13.90;;;6.70;98.10;;;;;;5105738;28;20942;-83
2020/12/01 02:01:41;;;;;;;23.50;16.50;;;6.70;98.00;;;;;;5105804;28;20513;-83
2020/12/01 02:04:10;;;;;;;21.80;15.23;;;6.80;98.20;;;;;;5105151;28;20521;-83
2020/12/01 02:06:40;;;;;;;23.50;16.00;;;6.80;98.30;;;;;;5105427;28;20551;-84
2020/12/01 02:09:10;;;;;;;25.07;16.73;;;6.80;98.30;;;;;;5105191;28;20772;-83
2020/12/01 02:11:40;;;;;;;27.80;19.10;;;6.80;98.40;;;;;;5104692;28;20432;-82
2020/12/01 02:14:09;;;;;;;22.23;16.37;;;6.80;98.40;;;;;;5104105;28;20468;-82
2020/12/01 02:16:40;;;;;;;23.33;15.93;;;6.80;98.40;;;;;;5104506;28;20447;-80
2020/12/01 02:19:09;;;;;;;24.60;16.50;;;6.80;98.70;;;;;;5104346;28;20791;-83
2020/12/01 02:21:37;;;;;;;23.60;15.90;;;6.80;98.30;;;;;;5103126;28;20920;-83
2020/12/01 02:24:06;;;;;;;24.17;16.93;;;6.90;98.40;;;;;;5104783;28;20483;-83
2020/12/01 02:26:34;;;;;;;26.40;18.23;;;6.90;98.40;;;;;;5103932;28;20964;-83
2020/12/01 02:29:04;;;;;;;28.63;16.97;;;6.90;98.40;;;;;;5103834;28;20440;-83
2020/12/01 02:31:30;;;;;;;26.13;17.20;;;6.90;98.60;;;;;;5104583;28;20435;-85
2020/12/01 02:33:56;;;;;;;25.67;16.57;;;7.00;98.60;;;;;;5102421;28;21090;-86
2020/12/01 02:36:22;;;;;;;20.97;15.50;;;7.00;98.60;;;;;;5102906;28;20443;-85
2020/12/01 02:38:49;;;;;;;21.90;16.27;;;7.00;98.70;;;;;;5104616;28;20451;-84
2020/12/01 02:41:15;;;;;;;23.90;16.13;;;7.00;98.80;;;;;;5104817;28;20819;-83
2020/12/01 02:43:42;;;;;;;22.13;15.97;;;7.00;98.90;;;;;;5103680;28;20463;-83
2020/12/01 02:46:08;;;;;;;24.90;17.00;;;7.00;98.90;;;;;;5103027;28;20472;-83
2020/12/01 02:48:34;;;;;;;23.47;17.37;;;7.10;99.30;;;;;;5102757;28;20424;-82
2020/12/01 02:51:00;;;;;;;20.67;15.47;;;7.10;99.00;;;;;;5102377;28;20439;-83
2020/12/01 02:53:27;;;;;;;25.77;16.50;;;7.10;99.00;;;;;;5101952;28;20837;-83
2020/12/01 02:55:53;;;;;;;18.43;14.90;;;7.20;98.90;;;;;;5102466;28;20444;-83
2020/12/01 02:58:19;;;;;;;18.37;13.80;;;7.20;98.70;;;;;;5101842;28;20798;-83
2020/12/01 03:00:47;;;;;;;18.53;12.27;;;7.20;98.60;;;;;;5101540;28;20440;-83
2020/12/01 03:03:13;;;;;;;21.17;15.27;;;7.20;98.60;;;;;;5101495;28;20470;-83
2020/12/01 03:05:39;;;;;;;17.33;12.90;;;7.20;98.60;;;;;;5101973;28;20472;-83
2020/12/01 03:08:05;;;;;;;15.10;11.83;;;7.20;98.60;;;;;;5101094;28;20439;-82
2020/12/01 03:10:31;;;;;;;18.40;11.33;;;7.20;98.50;;;;;;5101070;28;20444;-82
2020/12/01 03:12:58;;;;;;;15.43;11.37;;;7.20;98.50;;;;;;5101260;28;20464;-83
2020/12/01 03:15:24;;;;;;;16.97;12.33;;;7.20;98.40;;;;;;5105382;28;20444;-80
2020/12/01 03:17:52;;;;;;;14.80;11.77;;;7.20;98.50;;;;;;5112940;28;20486;-81
2020/12/01 03:20:18;;;;;;;13.13;11.30;;;7.20;98.40;;;;;;5111688;28;20471;-81
2020/12/01 03:22:44;;;;;;;16.83;12.00;;;7.20;98.40;;;;;;5110834;28;20458;-81
2020/12/01 03:25:10;;;;;;;16.40;10.70;;;7.20;98.40;;;;;;5109384;28;20459;-81
2020/12/01 03:27:36;;;;;;;14.00;10.37;;;7.20;98.40;;;;;;5109882;28;20451;-80
2020/12/01 03:30:04;;;;;;;14.90;8.90;;;7.30;98.60;;;;;;5103176;28;20451;-81
2020/12/01 03:32:30;;;;;;;13.57;8.67;;;7.40;98.70;;;;;;5098564;28;20447;-81
2020/12/01 03:34:57;;;;;;;11.97;8.80;;;7.30;98.60;;;;;;5098103;28;20444;-80
2020/12/01 03:37:23;;;;;;;12.50;8.50;;;7.40;98.60;;;;;;5097946;28;20439;-80
2020/12/01 03:39:50;;;;;;;13.00;7.53;;;7.40;98.60;;;;;;5097926;28;20922;-81
2020/12/01 03:42:16;;;;;;;7.77;5.10;;;7.40;98.50;;;;;;5097327;28;20448;-81
2020/12/01 03:44:42;;;;;;;8.27;5.13;;;7.50;98.50;;;;;;5097330;28;20464;-80
2020/12/01 03:47:09;;;;;;;7.00;4.50;;;7.50;98.40;;;;;;5097828;28;20490;-81
2020/12/01 03:49:35;;;;;;;8.57;5.07;;;7.50;98.50;;;;;;5099767;28;20443;-81
2020/12/01 03:52:02;;;;;;;8.07;4.20;;;7.50;98.40;;;;;;5098576;28;20440;-82
2020/12/01 03:54:28;;;;;;;14.30;4.03;;;7.50;98.40;;;;;;5097488;28;20491;-81
2020/12/01 03:56:54;;;;;;;6.70;2.77;;;7.50;98.70;;;;;;5097918;28;20417;-81
2020/12/01 03:59:22;;;;;;;5.30;2.90;;;7.60;98.30;;;;;;5097250;28;20451;-81
2020/12/01 04:01:49;;;;;;;5.50;1.93;;;7.60;98.30;;;;;;5097558;28;20874;-82
2020/12/01 04:04:15;;;;;;;9.87;1.77;;;7.60;98.50;;;;;;5097619;28;20467;-82
2020/12/01 04:06:41;;;;;;;5.40;1.90;;;7.60;98.10;;;;;;5097875;28;20468;-83
2020/12/01 04:09:08;;;;;;;4.90;1.93;;;7.60;98.10;;;;;;5099334;28;20443;-84
2020/12/01 04:11:34;;;;;;;7.00;2.10;;;7.60;98.00;;;;;;5098114;28;20451;-86
2020/12/01 04:14:00;;;;;;;6.53;1.80;;;7.70;98.10;;;;;;5099015;28;20456;-85
2020/12/01 04:16:27;;;;;;;6.20;2.87;;;7.60;98.00;;;;;;5097765;28;20431;-86
2020/12/01 04:18:53;;;;;;;4.03;2.33;;;7.60;98.10;;;;;;5098392;28;20455;-84
2020/12/01 04:21:19;;;;;;;6.00;1.83;;;7.50;98.20;;;;;;5097682;28;20447;-85
2020/12/01 04:23:51;;;;;;;7.00;2.33;;;7.60;98.50;;;;;;5098210;28;20970;-85
2020/12/01 04:26:21;;;;;;;3.50;2.13;;;7.60;98.50;;;;;;5097839;28;20468;-85
2020/12/01 04:28:48;;;;;;;3.77;1.97;;;7.60;98.60;;;;;;5097665;28;20459;-86
2020/12/01 04:31:14;;;;;;;6.97;3.07;;;7.60;98.60;;;;;;5097594;28;20459;-86
2020/12/01 04:33:41;;;;;;;5.50;3.47;;;7.60;98.60;;;;;;5096878;28;20466;-86
2020/12/01 04:36:07;;;;;;;7.40;3.10;;;7.60;98.60;;;;;;5096259;28;20455;-87
2020/12/01 04:38:34;;;;;;;7.03;4.10;;;7.70;98.70;;;;;;5096813;28;20424;-86
2020/12/01 04:41:01;;;;;;;7.73;4.10;;;7.70;98.70;;;;;;5095934;28;20952;-87
2020/12/01 04:43:34;;;;;;;7.43;4.67;;;7.70;98.90;;;;;;5096289;28;20466;-86
2020/12/01 04:46:02;;;;;;;7.57;5.00;;;7.70;98.60;;;;;;5096320;28;20471;-86
2020/12/01 04:48:36;;;;;;;9.87;5.53;;;7.70;98.60;;;;;;5097810;28;20455;-85
2020/12/01 04:51:14;;;;;;;11.07;7.20;;;7.70;98.60;;;;;;5098057;28;20431;-84
2020/12/01 04:54:01;;;;;;;11.50;7.70;;;7.70;98.60;;;;;;5098308;28;20456;-84
2020/12/01 04:57:02;;;;;;;13.33;7.73;;;7.70;98.50;;;;;;5098298;28;20894;-83
2020/12/01 04:59:59;;;;;;;12.27;7.57;;;7.70;98.50;;;;;;5098153;28;20447;-84
2020/12/01 05:02:51;;;;;;;17.80;9.77;;;7.80;98.40;;;;;;5098214;28;20552;-81
2020/12/01 05:05:42;;;;;;;13.63;10.00;;;7.80;98.30;;;;;;5098480;28;20449;-81
2020/12/01 05:08:33;;;;;;;15.80;9.80;;;7.70;98.30;;;;;;5097968;28;20943;-83
2020/12/01 05:11:05;;;;;;;17.67;9.40;;;7.70;98.50;;;;;;5098254;28;20531;-83
2020/12/01 05:13:34;;;;;;;14.00;9.27;;;7.70;98.60;;;;;;5097681;28;20453;-82
2020/12/01 05:16:14;;;;;;;19.43;10.80;;;7.70;98.60;;;;;;5097867;28;20444;-83
2020/12/01 05:18:41;;;;;;;23.53;11.73;;;7.80;98.70;;;;;;5097113;28;20459;-82
2020/12/01 05:21:10;;;;;;;19.10;11.20;;;7.70;98.70;;;;;;5097337;28;20429;-81
2020/12/01 05:23:40;;;;;;;20.97;12.13;;;7.70;98.80;;;;;;5098939;28;20447;-83
2020/12/01 05:26:09;;;;;;;18.50;13.63;;;7.70;98.90;;;;;;5097943;28;20662;-83
2020/12/01 05:28:44;;;;;;;22.73;11.37;;;7.80;98.90;;;;;;5098043;28;20444;-82
2020/12/01 05:31:11;;;;;;;22.60;12.50;;;7.70;99.20;;;;;;5097052;28;20420;-82
2020/12/01 05:33:37;;;;;;;18.63;12.00;;;7.70;99.00;;;;;;5100322;28;20471;-83
2020/12/01 05:36:14;;;;;;;22.07;11.03;;;7.70;99.10;;;;;;5101347;28;20867;-82
2020/12/01 05:38:41;;;;;;;16.47;10.50;;;7.80;99.10;;;;;;5100587;28;20462;-81
2020/12/01 05:41:20;;;;;;;21.13;11.20;;;7.80;99.10;;;;;;5101438;28;20983;-80
2020/12/01 05:43:53;;;;;;;21.83;11.70;;;7.80;99.10;;;;;;5100001;28;20470;-80
2020/12/01 05:46:27;;;;;;;17.63;11.20;;;7.80;99.10;;;;;;5100460;28;20538;-81
2020/12/01 05:49:01;;;;;;;25.33;11.83;;;7.70;99.10;;;;;;5100345;28;20423;-80
2020/12/01 05:51:34;;;;;;;26.47;11.87;;;7.70;99.10;;;;;;5100777;28;20405;-80
2020/12/01 05:54:01;;;;;;;13.90;9.50;;;7.70;99.20;;;;;;5100448;28;20463;-81
2020/12/01 05:56:28;;;;;;;28.13;11.90;;;7.80;99.20;;;;;;5098665;28;20427;-80
2020/12/01 05:58:59;;;;;;;24.70;9.60;;;7.80;99.00;;;;;;5099622;28;20451;-79
2020/12/01 06:01:27;;;;;;;25.03;11.50;;;7.70;99.00;;;;;;5100275;28;20787;-80
2020/12/01 06:04:08;;;;;;;25.30;11.83;;;7.70;99.10;;;;;;5099729;28;20808;-80
2020/12/01 06:07:00;;;;;;;20.07;9.43;;;7.80;99.00;;;;;;5099117;28;20480;-79
2020/12/01 06:09:50;;;;;;;21.20;10.10;;;7.80;99.00;;;;;;5095925;28;20451;-79
2020/12/01 06:12:23;;;;;;;20.17;10.20;;;7.70;98.90;;;;;;5099223;28;20903;-79
2020/12/01 06:14:56;;;;;;;19.97;10.40;;;7.70;99.00;;;;;;5099238;28;20432;-81
2020/12/01 06:17:37;;;;;;;24.60;10.53;;;7.70;99.00;;;;;;5099777;28;20451;-81
2020/12/01 06:20:15;;;;;;;19.67;10.90;;;7.70;99.00;;;;;;5099263;28;20424;-79
2020/12/01 06:23:02;;;;;;;31.30;12.43;;;7.70;99.00;;;;;;5098285;28;20467;-78
2020/12/01 06:26:01;;;;;;;20.30;12.23;;;7.60;99.10;;;;;;5097790;28;20458;-79
2020/12/01 06:29:11;;;;;;;21.10;11.37;;;7.70;99.30;;;;;;5097805;28;20937;-79
2020/12/01 06:32:12;;;;;;;20.33;10.30;;;7.70;99.30;;;;;;5099125;28;20440;-79
2020/12/01 06:35:03;;;;;;;27.67;11.33;;;7.60;99.30;;;;;;5098829;28;20459;-81
2020/12/01 06:37:35;;;;;;;21.17;10.30;;;7.60;99.30;;;;;;5099066;28;20428;-79
2020/12/01 06:40:34;;;;;;;23.27;9.50;;;7.70;99.40;;;;;;5098198;28;20436;-79
2020/12/01 06:43:07;;;;;;;21.00;11.00;;;7.70;99.30;;;;;;5082379;28;20514;-80
2020/12/01 06:45:42;;;;;;;17.03;10.50;;;7.60;99.30;;;;;;5098997;28;20432;-78
2020/12/01 06:48:13;;;;;;;23.83;11.90;;;7.60;99.50;;;;;;5098399;28;20461;-79
2020/12/01 06:50:48;;;;;;;21.60;12.20;;;7.60;99.50;;;;;;5098657;28;20428;-79
2020/12/01 06:53:25;;;;;;;18.40;11.27;;;7.60;99.70;;;;;;5098382;28;20463;-81
2020/12/01 06:55:54;;;;;;;30.83;11.80;;;7.70;99.80;;;;;;5097888;28;20413;-80
2020/12/01 06:58:38;;;;;;;18.87;12.40;;;7.70;99.80;;;;;;5098711;28;20456;-82
2020/12/01 07:01:25;;;;;;;32.30;13.13;;;7.70;99.80;;;;;;5097149;28;20431;-81
2020/12/01 07:04:19;;;;;;;21.90;12.60;;;7.60;99.90;;;;;;5098560;28;20468;-82
2020/12/01 07:06:48;;;;;;;28.43;12.93;;;7.60;99.90;;;;;;5098726;28;20476;-81
2020/12/01 07:09:17;;;;;;;25.73;12.27;;;7.60;99.90;;;;;;5099097;28;20451;-81
2020/12/01 07:12:04;;;;;;;24.63;12.97;;;7.60;99.90;;;;;;5099415;28;20444;-81
2020/12/01 07:14:40;;;;;;;29.53;14.10;;;7.70;99.90;;;;;;5099767;28;20478;-81
2020/12/01 07:17:44;;;;;;;25.13;13.43;;;7.70;99.90;;;;;;5098187;28;20469;-82
2020/12/01 07:20:32;;;;;;;40.20;13.33;;;7.80;99.90;;;;;;5089119;28;20957;-82
2020/12/01 07:23:10;;;;;;;24.17;13.13;;;7.80;99.90;;;;;;5098832;28;20471;-82
2020/12/01 07:25:43;;;;;;;29.87;13.03;;;7.80;99.90;;;;;;5099659;28;20476;-83
2020/12/01 07:28:18;;;;;;;24.07;12.93;;;7.90;99.90;;;;;;5099057;28;20424;-82
2020/12/01 07:30:55;;;;;;;28.73;12.53;;;7.90;99.80;;;;;;5099040;28;20458;-83
2020/12/01 07:33:24;;;;;;;30.63;11.67;;;7.90;99.90;;;;;;5098944;28;20463;-80
2020/12/01 07:35:53;;;;;;;29.07;13.37;;;7.90;99.70;;;;;;5099947;28;20431;-82
2020/12/01 07:38:33;;;;;;;26.57;12.50;;;7.90;99.60;;;;;;5100612;28;20456;-83
2020/12/01 07:41:14;;;;;;;27.33;13.17;;;8.00;99.60;;;;;;5100734;28;20796;-83
2020/12/01 07:43:41;;;;;;;36.97;13.70;;;8.00;99.50;;;;;;5100003;28;20455;-83
2020/12/01 07:46:08;;;;;;;25.03;13.43;;;8.00;99.30;;;;;;5099001;28;20486;-81
2020/12/01 07:48:34;;;;;;;27.57;14.73;;;8.00;99.20;;;;;;5099731;28;20949;-81
2020/12/01 07:51:05;;;;;;;23.87;13.23;;;8.00;99.20;;;;;;5099228;28;20447;-82
2020/12/01 07:53:34;;;;;;;29.27;15.13;;;8.00;99.10;;;;;;5099083;28;20470;-82
2020/12/01 07:56:04;;;;;;;28.50;14.03;;;8.00;99.10;;;;;;5098620;28;20440;-82
2020/12/01 07:58:31;;;;;;;30.67;14.17;;;8.00;99.10;;;;;;5101280;28;20540;-81
2020/12/01 08:01:00;;;;;;;25.80;14.27;;;8.00;99.00;;;;;;5098921;28;20430;-84
2020/12/01 08:03:28;;;;;;;29.40;14.60;;;8.10;98.90;;;;;;5100800;28;20493;-84
2020/12/01 08:06:02;;;;;;;34.00;14.87;;;8.10;99.00;;;;;;5100901;28;20432;-83
2020/12/01 08:08:33;;;;;;;27.83;14.30;;;8.10;98.90;;;;;;5100766;28;20412;-84
2020/12/01 08:11:03;;;;;;;30.07;14.70;;;8.00;99.00;;;;;;5101992;28;20929;-84
2020/12/01 08:13:31;;;;;;;28.70;14.07;;;8.00;98.90;;;;;;5100557;28;21002;-84
2020/12/01 08:16:00;;;;;;;33.97;16.20;;;8.00;99.00;;;;;;5102327;28;20940;-85
2020/12/01 08:18:29;;;;;;;30.83;14.47;;;8.00;99.10;;;;;;5105129;28;20850;-84
2020/12/01 08:20:56;;;;;;;31.77;15.70;;;8.00;99.10;;;;;;5103969;28;20432;-84
2020/12/01 08:23:27;;;;;;;33.33;15.13;;;8.10;99.20;;;;;;5102065;28;20456;-84
2020/12/01 08:26:01;;;;;;;30.73;15.70;;;8.10;99.10;;;;;;5101664;28;20452;-84
2020/12/01 08:28:31;;;;;;;26.97;15.30;;;8.20;99.10;;;;;;5101827;28;20427;-84
2020/12/01 08:31:05;;;;;;;30.50;15.00;;;8.30;99.00;;;;;;5101748;28;20454;-83
2020/12/01 08:33:46;;;;;;;28.47;14.97;;;8.30;98.90;;;;;;5102493;28;21023;-83
2020/12/01 08:36:24;;;;;;;22.10;13.77;;;8.40;98.90;;;;;;5103143;28;20786;-83
2020/12/01 08:39:18;;;;;;;36.47;15.87;;;8.40;98.90;;;;;;5101828;28;20434;-83
2020/12/01 08:41:49;;;;;;;28.43;14.43;;;8.50;98.90;;;;;;5100876;28;20474;-83
2020/12/01 08:44:27;;;;;;;32.27;14.47;;;8.50;98.60;;;;;;5101715;28;20464;-84
2020/12/01 08:46:55;;;;;;;21.73;13.43;;;8.60;98.50;;;;;;5102071;28;20472;-85
2020/12/01 08:49:24;;;;;;;25.60;13.47;;;8.60;98.40;;;;;;5102800;28;20894;-84
2020/12/01 08:51:54;;;;;;;26.53;14.07;;;8.70;98.30;;;;;;5102551;28;20440;-83
2020/12/01 08:54:23;;;;;;;32.80;15.23;;;8.80;98.30;;;;;;5103171;28;20582;-84
2020/12/01 08:57:21;;;;;;;28.40;14.60;;;8.80;98.00;;;;;;5102322;28;20430;-84
2020/12/01 08:59:52;;;;;;;36.43;15.77;;;8.80;97.90;;;;;;5102008;28;20428;-84
2020/12/01 09:02:21;;;;;;;28.27;15.30;;;8.80;97.70;;;;;;5102137;28;20937;-84
2020/12/01 09:04:59;;;;;;;25.67;15.73;;;8.90;97.70;;;;;;5101264;28;20448;-83
2020/12/01 09:07:30;;;;;;;23.23;14.30;;;8.90;97.60;;;;;;5105123;28;20462;-84
2020/12/01 09:10:09;;;;;;;28.47;14.97;;;8.90;97.50;;;;;;5106379;28;20436;-84
2020/12/01 09:12:39;;;;;;;29.27;13.80;;;9.00;97.40;;;;;;5106375;28;20451;-83
2020/12/01 09:15:20;;;;;;;26.00;15.63;;;9.00;97.40;;;;;;5106620;28;20446;-83
2020/12/01 09:18:00;;;;;;;26.47;16.23;;;9.00;97.20;;;;;;5107359;28;20454;-84
2020/12/01 09:20:52;;;;;;;25.40;15.10;;;9.10;97.60;;;;;;5106637;28;20455;-84
2020/12/01 09:23:22;;;;;;;26.33;15.20;;;9.10;97.30;;;;;;5108113;28;20460;-84
2020/12/01 09:25:51;;;;;;;23.20;14.50;;;9.20;97.30;;;;;;5104149;28;20454;-83
2020/12/01 09:28:21;;;;;;;25.70;15.63;;;9.30;97.20;;;;;;5105203;28;20596;-83
2020/12/01 09:30:48;;;;;;;27.33;14.83;;;9.30;97.30;;;;;;5106149;28;20446;-84
2020/12/01 09:33:18;;;;;;;27.57;15.37;;;9.40;97.10;;;;;;5103868;28;20455;-84
2020/12/01 09:35:44;;;;;;;25.00;15.10;;;9.40;96.90;;;;;;5106141;28;20488;-83
2020/12/01 09:38:14;;;;;;;25.07;13.37;;;9.40;96.80;;;;;;5105506;28;20887;-83
2020/12/01 09:40:41;;;;;;;33.57;15.20;;;9.50;96.70;;;;;;5108116;28;20428;-83
2020/12/01 09:43:15;;;;;;;26.03;13.97;;;9.50;96.70;;;;;;5105692;28;20472;-83
2020/12/01 09:45:43;;;;;;;27.20;16.07;;;9.60;96.70;;;;;;5105239;28;20464;-83
2020/12/01 09:48:14;;;;;;;21.47;14.67;;;9.80;96.50;;;;;;5103529;28;20468;-83
2020/12/01 09:50:41;;;;;;;21.50;14.90;;;9.80;96.20;;;;;;5102797;28;20998;-83
2020/12/01 09:56:12;;;;;;;22.23;13.17;;;9.90;96.00;;;;;;5102311;28;20436;-82
2020/12/01 10:09:30;;;;;;;15.00;9.07;;;9.60;96.30;;;;;;5101362;28;20430;-84
2020/12/01 10:18:06;;;;;;;10.63;8.30;;;9.70;97.30;;;;;;5100983;28;20408;-85
2020/12/01 10:21:02;;;;;;;14.03;8.67;;;9.70;96.90;;;;;;5099728;28;20435;-85
2020/12/01 10:32:05;;;;;;;11.20;7.93;;;9.80;96.70;;;;;;5041624;28;20435;-85
2020/12/01 10:34:43;;;;;;;9.73;8.10;;;9.80;96.90;;;;;;5099076;28;20459;-85
2020/12/01 10:37:10;;;;;;;10.57;8.30;;;9.80;97.00;;;;;;5097384;28;20988;-85
2020/12/01 10:39:37;;;;;;;13.47;8.40;;;9.80;97.00;;;;;;5097575;28;20522;-86
2020/12/01 10:42:06;;;;;;;14.60;9.07;;;9.80;97.10;;;;;;5097286;28;20444;-85
2020/12/01 10:44:32;;;;;;;10.20;8.50;;;9.80;97.10;;;;;;5097042;28;20454;-85
2020/12/01 10:46:59;;;;;;;13.20;8.30;;;9.80;97.20;;;;;;5097802;28;20554;-85
2020/12/01 10:49:25;;;;;;;11.40;7.30;;;9.70;97.20;;;;;;5096442;28;20437;-85
2020/12/01 10:51:51;;;;;;;9.77;7.10;;;9.70;97.20;;;;;;5096773;28;20459;-85
2020/12/01 10:54:18;;;;;;;10.93;8.27;;;9.70;97.20;;;;;;5096882;28;20455;-85
2020/12/01 10:56:47;;;;;;;9.10;6.90;;;9.70;97.40;;;;;;5100245;28;20420;-84
2020/12/01 10:59:13;;;;;;;10.97;7.80;;;9.70;97.60;;;;;;5097242;28;20432;-85
2020/12/01 11:01:39;;;;;;;10.10;7.40;;;9.70;97.80;;;;;;5097402;28;20940;-84
2020/12/01 11:04:06;;;;;;;8.30;6.83;;;9.60;97.60;;;;;;5097463;28;20566;-84
2020/12/01 11:06:32;;;;;;;9.30;7.10;;;9.60;97.60;;;;;;5097276;28;20464;-83
2020/12/01 11:08:58;;;;;;;9.10;6.70;;;9.70;97.80;;;;;;5096852;28;20428;-85
2020/12/01 11:11:25;;;;;;;6.73;5.33;;;9.60;97.80;;;;;;5096478;28;20436;-85
2020/12/01 11:13:52;;;;;;;9.67;7.00;;;9.60;97.90;;;;;;5096831;28;20464;-85
2020/12/01 11:16:18;;;;;;;7.50;5.43;;;9.60;98.10;;;;;;5096708;28;20436;-86
2020/12/01 11:18:44;;;;;;;7.13;5.83;;;9.60;98.30;;;;;;5096213;28;20448;-85
2020/12/01 11:21:10;;;;;;;7.33;5.40;;;9.70;98.40;;;;;;5096731;28;20448;-85
2020/12/01 11:23:37;;;;;;;9.00;5.83;;;9.70;98.50;;;;;;5096676;28;20981;-85
2020/12/01 11:26:03;;;;;;;6.07;5.30;;;9.80;98.50;;;;;;5096661;28;20475;-86
2020/12/01 11:28:29;;;;;;;5.63;4.90;;;9.80;98.50;;;;;;5097658;28;20484;-86
2020/12/01 11:30:56;;;;;;;5.97;4.90;;;9.90;98.60;;;;;;5098762;28;20446;-85
2020/12/01 11:33:22;;;;;;;6.43;5.13;;;10.00;97.80;;;;;;5096398;28;20969;-85
2020/12/01 11:35:49;;;;;;;8.20;5.70;;;10.10;97.50;;;;;;5095867;28;20429;-85
2020/12/01 11:38:16;;;;;;;11.63;6.67;;;10.10;97.20;;;;;;5095309;28;20444;-85
2020/12/01 11:40:42;;;;;;;8.93;8.03;;;10.10;97.10;;;;;;5095236;28;20447;-85
2020/12/01 11:43:08;;;;;;;7.73;6.90;;;10.00;96.90;;;;;;5095892;28;20486;-85
2020/12/01 11:45:34;;;;;;;6.93;6.23;;;10.00;97.00;;;;;;5096936;28;20424;-85
2020/12/01 11:48:01;;;;;;;9.73;7.80;;;10.00;97.20;;;;;;5096068;28;20491;-85
2020/12/01 11:50:27;;;;;;;8.13;7.00;;;10.00;97.30;;;;;;5096852;28;20432;-85
2020/12/01 11:52:54;;;;;;;8.33;7.00;;;10.00;97.40;;;;;;5096131;28;20838;-85
2020/12/01 11:55:20;;;;;;;7.33;6.63;;;10.10;97.40;;;;;;5096661;28;20456;-85
2020/12/01 11:57:46;;;;;;;9.40;6.60;;;10.10;97.40;;;;;;5096696;28;20917;-85
2020/12/01 12:00:17;;;;;;;6.43;5.83;;;10.20;97.50;;;;;;5096985;28;20451;-84
2020/12/01 12:02:43;;;;;;;6.97;6.27;;;10.20;97.50;;;;;;5096866;28;21018;-84
2020/12/01 12:05:11;;;;;;;5.70;5.10;;;10.30;97.40;;;;;;5098632;28;20446;-84
2020/12/01 12:07:37;;;;;;;6.70;4.47;;;10.30;97.20;;;;;;5098811;28;20463;-84
2020/12/01 12:10:04;;;;;;;6.93;4.13;;;10.30;97.10;;;;;;5100280;28;20439;-85
2020/12/01 12:12:30;;;;;;;5.50;4.33;;;10.40;97.10;;;;;;5097761;28;20439;-84
2020/12/01 12:14:56;;;;;;;5.50;3.67;;;10.40;97.00;;;;;;5099728;28;20448;-84
2020/12/01 12:17:22;;;;;;;4.43;2.57;;;10.40;96.90;;;;;;5099995;28;20416;-85
2020/12/01 12:19:48;;;;;;;6.17;3.10;;;10.40;96.70;;;;;;5099687;28;20424;-84
2020/12/01 12:22:16;;;;;;;8.07;2.70;;;10.40;96.70;;;;;;5100716;28;20473;-85
2020/12/01 12:24:42;;;;;;;11.30;3.03;;;10.40;96.80;;;;;;5099318;28;20482;-83
2020/12/01 12:27:08;;;;;;;7.23;2.40;;;10.50;96.90;;;;;;5100725;28;21000;-85
2020/12/01 12:29:34;;;;;;;10.53;2.23;;;10.40;96.50;;;;;;5101763;28;20454;-85
2020/12/01 12:32:00;;;;;;;8.10;2.03;;;10.40;96.50;;;;;;5102648;28;20440;-85
2020/12/01 12:34:27;;;;;;;9.77;2.40;;;10.50;96.60;;;;;;5098843;28;20840;-85
2020/12/01 12:36:53;;;;;;;5.00;2.27;;;10.40;96.70;;;;;;5097106;28;20444;-85
2020/12/01 12:39:20;;;;;;;9.00;2.43;;;10.40;96.50;;;;;;5098452;28;20515;-83
2020/12/01 12:41:46;;;;;;;10.07;3.07;;;10.40;96.40;;;;;;5104226;28;20960;-83
2020/12/01 12:44:13;;;;;;;12.37;3.03;;;10.40;96.40;;;;;;5106795;28;20450;-85
2020/12/01 12:46:39;;;;;;;8.23;2.53;;;10.40;96.20;;;;;;5107187;28;20487;-84
2020/12/01 12:49:06;;;;;;;9.10;2.53;;;10.30;96.20;;;;;;5104242;28;20432;-84
2020/12/01 12:51:33;;;;;;;9.60;3.27;;;10.30;96.40;;;;;;5106558;28;20449;-83
2020/12/01 12:53:59;;;;;;;10.03;2.77;;;10.30;96.50;;;;;;5105709;28;20476;-84
2020/12/01 12:56:27;;;;;;;6.73;2.30;;;10.30;96.60;;;;;;5105467;28;20844;-84
2020/12/01 12:58:53;;;;;;;9.00;3.57;;;10.20;96.50;;;;;;5105499;28;20909;-83
2020/12/01 13:01:20;;;;;;;8.63;2.80;;;10.20;96.60;;;;;;5109214;28;20431;-84
2020/12/01 13:03:46;;;;;;;10.30;3.33;;;10.10;96.70;;;;;;5109105;28;20471;-83
2020/12/01 13:06:13;;;;;;;14.43;3.20;;;10.10;97.00;;;;;;5108720;28;20933;-84
2020/12/01 13:08:39;;;;;;;10.73;2.70;;;10.10;97.00;;;;;;5108937;28;20483;-84
2020/12/01 13:11:05;;;;;;;12.63;3.93;;;10.10;97.00;;;;;;5108799;28;20432;-84
2020/12/01 13:13:33;;;;;;;15.07;3.70;;;10.10;97.00;;;;;;5108895;28;20479;-83
2020/12/01 13:15:59;;;;;;;17.83;3.57;;;10.10;96.90;;;;;;5109315;28;20979;-84
2020/12/01 13:18:25;;;;;;;15.23;4.43;;;10.10;96.80;;;;;;5107978;28;20790;-84
2020/12/01 13:20:52;;;;;;;10.40;2.33;;;10.10;96.80;;;;;;5106585;28;20443;-84
2020/12/01 13:23:18;;;;;;;15.27;3.37;;;10.10;96.80;;;;;;5105637;28;20505;-84
2020/12/01 13:25:44;;;;;;;14.77;3.40;;;10.10;96.90;;;;;;5103071;28;20465;-84